sensor_id;sensor_type;location;lat;lon;timestamp;temperature;humidity
21417;DHT22;10869;52.238;10.716;2022-12-18T04:04:19;-5.30;99.90
21417;DHT22;10869;52.238;10.716;2022-12-18T04:06:47;-5.30;99.90
21417;DHT22;10869;52.238;10.716;2022-12-18T04:09:14;-5.40;99.90
21417;DHT22;10869;52.238;10.716;2022-12-18T04:11:43;-5.40;99.90
21417;DHT22;10869;52.238;10.716;2022-12-18T04:14:10;-5.40;99.90
21417;DHT22;10869;52.238;10.716;2022-12-18T04:16:36;-5.40;99.90
21417;DHT22;10869;52.238;10.716;2022-12-18T04:19:04;-5.30;99.90
21417;DHT22;10869;52.238;10.716;2022-12-18T04:21:31;-5.30;99.90
21417;DHT22;10869;52.238;10.716;2022-12-18T04:23:59;-5.40;99.90
21417;DHT22;10869;52.238;10.716;2022-12-18T04:26:25;-5.40;99.90
21417;DHT22;10869;52.238;10.716;2022-12-18T04:28:51;-5.40;99.90
21417;DHT22;10869;52.238;10.716;2022-12-18T04:31:17;-5.40;99.90
21417;DHT22;10869;52.238;10.716;2022-12-18T04:33:42;-5.40;99.90
21417;DHT22;10869;52.238;10.716;2022-12-18T04:36:08;-5.40;99.90
21417;DHT22;10869;52.238;10.716;2022-12-18T04:38:34;-5.40;99.90
21417;DHT22;10869;52.238;10.716;2022-12-18T04:41:00;-5.30;99.90
21417;DHT22;10869;52.238;10.716;2022-12-18T04:43:25;-5.30;99.90
21417;DHT22;10869;52.238;10.716;2022-12-18T04:45:51;-5.30;99.90
21417;DHT22;10869;52.238;10.716;2022-12-18T04:48:17;-5.30;99.90
21417;DHT22;10869;52.238;10.716;2022-12-18T04:50:42;-5.30;99.90
21417;DHT22;10869;52.238;10.716;2022-12-18T04:53:11;-5.30;99.90
21417;DHT22;10869;52.238;10.716;2022-12-18T04:55:37;-5.30;99.90
21417;DHT22;10869;52.238;10.716;2022-12-18T04:58:03;-5.40;99.90
21417;DHT22;10869;52.238;10.716;2022-12-18T05:00:28;-5.40;99.90
21417;DHT22;10869;52.238;10.716;2022-12-18T05:02:54;-5.40;99.90
21417;DHT22;10869;52.238;10.716;2022-12-18T05:05:20;-5.40;99.90
21417;DHT22;10869;52.238;10.716;2022-12-18T05:07:45;-5.40;99.90
21417;DHT22;10869;52.238;10.716;2022-12-18T05:10:11;-5.50;99.90
21417;DHT22;10869;52.238;10.716;2022-12-18T05:12:37;-5.60;99.90
21417;DHT22;10869;52.238;10.716;2022-12-18T05:15:23;-5.70;99.90
21417;DHT22;10869;52.238;10.716;2022-12-18T05:17:49;-5.70;99.90
21417;DHT22;10869;52.238;10.716;2022-12-18T05:20:15;-5.70;99.90
21417;DHT22;10869;52.238;10.716;2022-12-18T05:22:40;-5.70;99.90
21417;DHT22;10869;52.238;10.716;2022-12-18T05:25:06;-5.70;99.90
21417;DHT22;10869;52.238;10.716;2022-12-18T05:27:32;-5.60;99.90
21417;DHT22;10869;52.238;10.716;2022-12-18T05:29:58;-5.70;99.90
21417;DHT22;10869;52.238;10.716;2022-12-18T05:32:23;-5.70;99.90
21417;DHT22;10869;52.238;10.716;2022-12-18T05:34:49;-5.70;99.90
21417;DHT22;10869;52.238;10.716;2022-12-18T05:37:15;-5.80;99.90
21417;DHT22;10869;52.238;10.716;2022-12-18T05:39:40;-5.80;99.90
21417;DHT22;10869;52.238;10.716;2022-12-18T05:42:07;-5.80;99.90
21417;DHT22;10869;52.238;10.716;2022-12-18T05:44:33;-5.80;99.90
21417;DHT22;10869;52.238;10.716;2022-12-18T05:46:59;-5.80;99.90
21417;DHT22;10869;52.238;10.716;2022-12-18T05:49:25;-5.80;99.90
21417;DHT22;10869;52.238;10.716;2022-12-18T05:51:50;-5.70;99.90
21417;DHT22;10869;52.238;10.716;2022-12-18T05:54:16;-5.80;99.90
21417;DHT22;10869;52.238;10.716;2022-12-18T05:56:42;-5.80;99.90
21417;DHT22;10869;52.238;10.716;2022-12-18T05:59:08;-5.80;99.90
21417;DHT22;10869;52.238;10.716;2022-12-18T06:01:34;-5.80;99.90
21417;DHT22;10869;52.238;10.716;2022-12-18T06:03:59;-5.80;99.90
21417;DHT22;10869;52.238;10.716;2022-12-18T06:06:27;-5.80;99.90
21417;DHT22;10869;52.238;10.716;2022-12-18T06:08:53;-5.80;99.90
21417;DHT22;10869;52.238;10.716;2022-12-18T06:11:22;-5.70;99.90
21417;DHT22;10869;52.238;10.716;2022-12-18T06:13:52;-5.70;99.90
21417;DHT22;10869;52.238;10.716;2022-12-18T06:16:18;-5.60;99.90
21417;DHT22;10869;52.238;10.716;2022-12-18T06:18:44;-5.50;99.90
21417;DHT22;10869;52.238;10.716;2022-12-18T06:21:10;-5.50;99.90
21417;DHT22;10869;52.238;10.716;2022-12-18T06:23:36;-5.50;99.90
21417;DHT22;10869;52.238;10.716;2022-12-18T06:26:10;-5.50;99.90
21417;DHT22;10869;52.238;10.716;2022-12-18T06:28:36;-5.60;99.90
21417;DHT22;10869;52.238;10.716;2022-12-18T06:31:03;-5.60;99.90
21417;DHT22;10869;52.238;10.716;2022-12-18T06:33:29;-5.70;99.90
21417;DHT22;10869;52.238;10.716;2022-12-18T06:36:10;-5.80;99.90
21417;DHT22;10869;52.238;10.716;2022-12-18T06:38:37;-5.90;99.90
21417;DHT22;10869;52.238;10.716;2022-12-18T06:41:10;-6.10;99.90
21417;DHT22;10869;52.238;10.716;2022-12-18T06:43:37;-6.20;99.90
21417;DHT22;10869;52.238;10.716;2022-12-18T06:46:03;-6.40;99.90
21417;DHT22;10869;52.238;10.716;2022-12-18T06:48:29;-6.40;99.90
21417;DHT22;10869;52.238;10.716;2022-12-18T06:50:55;-6.50;99.90
21417;DHT22;10869;52.238;10.716;2022-12-18T06:53:21;-6.60;99.90
21417;DHT22;10869;52.238;10.716;2022-12-18T06:55:47;-6.60;99.90
21417;DHT22;10869;52.238;10.716;2022-12-18T06:58:13;-6.70;99.90
21417;DHT22;10869;52.238;10.716;2022-12-18T07:00:38;-6.80;99.90
21417;DHT22;10869;52.238;10.716;2022-12-18T07:03:04;-6.90;99.90
21417;DHT22;10869;52.238;10.716;2022-12-18T07:05:30;-7.00;99.90
21417;DHT22;10869;52.238;10.716;2022-12-18T07:07:55;-7.00;99.90
21417;DHT22;10869;52.238;10.716;2022-12-18T07:10:21;-7.10;99.90
21417;DHT22;10869;52.238;10.716;2022-12-18T07:12:47;-7.10;99.90
21417;DHT22;10869;52.238;10.716;2022-12-18T07:15:13;-7.20;99.90
21417;DHT22;10869;52.238;10.716;2022-12-18T07:17:39;-7.10;99.90
21417;DHT22;10869;52.238;10.716;2022-12-18T07:20:05;-7.10;99.90
21417;DHT22;10869;52.238;10.716;2022-12-18T07:22:30;-7.00;99.90
21417;DHT22;10869;52.238;10.716;2022-12-18T07:24:57;-6.90;99.90
21417;DHT22;10869;52.238;10.716;2022-12-18T07:27:26;-6.80;99.90
21417;DHT22;10869;52.238;10.716;2022-12-18T07:29:52;-6.70;99.90
21417;DHT22;10869;52.238;10.716;2022-12-18T07:32:18;-6.60;99.90
21417;DHT22;10869;52.238;10.716;2022-12-18T07:34:44;-6.60;99.90
21417;DHT22;10869;52.238;10.716;2022-12-18T07:37:10;-6.60;99.90
21417;DHT22;10869;52.238;10.716;2022-12-18T07:39:35;-6.60;99.90
21417;DHT22;10869;52.238;10.716;2022-12-18T07:42:01;-6.60;99.90
21417;DHT22;10869;52.238;10.716;2022-12-18T07:44:45;-6.50;99.90
21417;DHT22;10869;52.238;10.716;2022-12-18T07:47:11;-6.40;99.90
21417;DHT22;10869;52.238;10.716;2022-12-18T07:49:37;-6.20;99.90
21417;DHT22;10869;52.238;10.716;2022-12-18T07:52:03;-6.00;99.90
21417;DHT22;10869;52.238;10.716;2022-12-18T07:54:29;-5.80;99.90
21417;DHT22;10869;52.238;10.716;2022-12-18T07:56:54;-5.60;99.90
21417;DHT22;10869;52.238;10.716;2022-12-18T07:59:23;-5.50;99.90
21417;DHT22;10869;52.238;10.716;2022-12-18T08:05:11;-5.40;99.90
21417;DHT22;10869;52.238;10.716;2022-12-18T08:10:59;-5.30;99.90
21417;DHT22;10869;52.238;10.716;2022-12-18T08:13:26;-5.20;99.90
21417;DHT22;10869;52.238;10.716;2022-12-18T08:16:01;-5.10;99.90
21417;DHT22;10869;52.238;10.716;2022-12-18T08:21:51;-5.10;99.90
21417;DHT22;10869;52.238;10.716;2022-12-18T08:24:17;-5.20;99.90
21417;DHT22;10869;52.238;10.716;2022-12-18T08:26:42;-5.20;99.90
21417;DHT22;10869;52.238;10.716;2022-12-18T08:29:09;-5.30;99.90
21417;DHT22;10869;52.238;10.716;2022-12-18T08:31:38;-5.30;99.90
21417;DHT22;10869;52.238;10.716;2022-12-18T08:34:04;-5.30;99.90
21417;DHT22;10869;52.238;10.716;2022-12-18T08:36:29;-5.30;99.90
21417;DHT22;10869;52.238;10.716;2022-12-18T08:42:17;-5.10;99.90
21417;DHT22;10869;52.238;10.716;2022-12-18T08:45:01;-5.00;99.90
21417;DHT22;10869;52.238;10.716;2022-12-18T08:47:27;-4.90;99.90
21417;DHT22;10869;52.238;10.716;2022-12-18T08:49:53;-4.80;99.90
21417;DHT22;10869;52.238;10.716;2022-12-18T08:52:19;-4.80;99.90
21417;DHT22;10869;52.238;10.716;2022-12-18T08:54:45;-4.80;99.90
21417;DHT22;10869;52.238;10.716;2022-12-18T08:57:11;-4.90;99.90
21417;DHT22;10869;52.238;10.716;2022-12-18T08:59:37;-4.90;99.90
21417;DHT22;10869;52.238;10.716;2022-12-18T09:02:03;-4.90;99.90
21417;DHT22;10869;52.238;10.716;2022-12-18T09:10:55;-4.70;99.90
21417;DHT22;10869;52.238;10.716;2022-12-18T09:13:21;-4.70;99.90
21417;DHT22;10869;52.238;10.716;2022-12-18T09:19:11;-4.30;99.90
21417;DHT22;10869;52.238;10.716;2022-12-18T09:21:37;-4.10;99.90
21417;DHT22;10869;52.238;10.716;2022-12-18T09:24:04;-4.00;99.90
21417;DHT22;10869;52.238;10.716;2022-12-18T09:29:52;-3.80;99.90
21417;DHT22;10869;52.238;10.716;2022-12-18T09:32:18;-3.60;99.90
21417;DHT22;10869;52.238;10.716;2022-12-18T09:34:43;-3.50;99.90
21417;DHT22;10869;52.238;10.716;2022-12-18T09:40:46;-3.00;99.90
21417;DHT22;10869;52.238;10.716;2022-12-18T09:43:41;-2.70;99.90
21417;DHT22;10869;52.238;10.716;2022-12-18T09:46:17;-2.50;99.90
21417;DHT22;10869;52.238;10.716;2022-12-18T09:48:49;-2.30;99.90
21417;DHT22;10869;52.238;10.716;2022-12-18T09:51:28;-2.10;99.90
21417;DHT22;10869;52.238;10.716;2022-12-18T09:54:10;-2.00;99.90
21417;DHT22;10869;52.238;10.716;2022-12-18T09:56:41;-1.80;99.90
21417;DHT22;10869;52.238;10.716;2022-12-18T09:59:24;-1.60;99.90
21417;DHT22;10869;52.238;10.716;2022-12-18T10:01:51;-1.40;99.90
21417;DHT22;10869;52.238;10.716;2022-12-18T10:08:12;-1.20;99.90
21417;DHT22;10869;52.238;10.716;2022-12-18T10:14:06;-0.80;99.90
21417;DHT22;10869;52.238;10.716;2022-12-18T10:17:13;-0.60;99.90
21417;DHT22;10869;52.238;10.716;2022-12-18T10:28:23;-0.20;99.90
21417;DHT22;10869;52.238;10.716;2022-12-18T10:30:50;-0.10;99.90
21417;DHT22;10869;52.238;10.716;2022-12-18T10:33:21;0.00;99.90
21417;DHT22;10869;52.238;10.716;2022-12-18T10:35:50;0.00;99.90
21417;DHT22;10869;52.238;10.716;2022-12-18T10:43:15;0.00;99.90
21417;DHT22;10869;52.238;10.716;2022-12-18T10:45:42;0.10;99.90
21417;DHT22;10869;52.238;10.716;2022-12-18T10:48:22;0.00;99.90
21417;DHT22;10869;52.238;10.716;2022-12-18T10:50:50;0.00;99.90
21417;DHT22;10869;52.238;10.716;2022-12-18T10:56:39;-0.10;99.90
21417;DHT22;10869;52.238;10.716;2022-12-18T11:02:35;-0.30;99.90
21417;DHT22;10869;52.238;10.716;2022-12-18T11:08:24;-0.30;99.90
21417;DHT22;10869;52.238;10.716;2022-12-18T11:10:49;-0.20;99.90
21417;DHT22;10869;52.238;10.716;2022-12-18T11:13:23;-0.30;99.90
21417;DHT22;10869;52.238;10.716;2022-12-18T11:19:32;-0.30;99.90
21417;DHT22;10869;52.238;10.716;2022-12-18T11:22:18;-0.30;99.90
21417;DHT22;10869;52.238;10.716;2022-12-18T11:24:55;-0.30;99.90
21417;DHT22;10869;52.238;10.716;2022-12-18T11:30:43;0.00;99.90
21417;DHT22;10869;52.238;10.716;2022-12-18T11:33:13;0.20;99.90
21417;DHT22;10869;52.238;10.716;2022-12-18T11:35:55;0.30;99.90
21417;DHT22;10869;52.238;10.716;2022-12-18T11:38:37;0.40;99.90
21417;DHT22;10869;52.238;10.716;2022-12-18T11:41:11;0.50;99.90
21417;DHT22;10869;52.238;10.716;2022-12-18T11:43:55;0.60;99.90
21417;DHT22;10869;52.238;10.716;2022-12-18T11:49:48;0.80;99.90
21417;DHT22;10869;52.238;10.716;2022-12-18T11:52:28;0.80;99.90
21417;DHT22;10869;52.238;10.716;2022-12-18T11:54:59;0.80;99.90
21417;DHT22;10869;52.238;10.716;2022-12-18T12:03:57;1.00;99.90
21417;DHT22;10869;52.238;10.716;2022-12-18T12:11:55;1.40;99.90
21417;DHT22;10869;52.238;10.716;2022-12-18T12:14:39;1.60;99.90
21417;DHT22;10869;52.238;10.716;2022-12-18T12:19:51;2.00;99.90
21417;DHT22;10869;52.238;10.716;2022-12-18T12:35:02;2.30;98.80
21417;DHT22;10869;52.238;10.716;2022-12-18T12:40:24;2.30;98.70
21417;DHT22;10869;52.238;10.716;2022-12-18T12:42:55;2.30;98.40
21417;DHT22;10869;52.238;10.716;2022-12-18T12:48:36;2.40;98.10
21417;DHT22;10869;52.238;10.716;2022-12-18T12:54:26;2.40;97.50
21417;DHT22;10869;52.238;10.716;2022-12-18T13:08:59;1.70;98.60
21417;DHT22;10869;52.238;10.716;2022-12-18T13:14:47;1.50;98.30
21417;DHT22;10869;52.238;10.716;2022-12-18T13:23:38;1.20;99.40
21417;DHT22;10869;52.238;10.716;2022-12-18T13:29:42;1.00;99.70
21417;DHT22;10869;52.238;10.716;2022-12-18T13:53:50;0.50;98.30
21417;DHT22;10869;52.238;10.716;2022-12-18T13:56:22;0.60;98.40
21417;DHT22;10869;52.238;10.716;2022-12-18T13:59:20;0.50;98.60
21417;DHT22;10869;52.238;10.716;2022-12-18T14:04:38;0.60;98.70
21417;DHT22;10869;52.238;10.716;2022-12-18T14:09:53;0.50;98.20
21417;DHT22;10869;52.238;10.716;2022-12-18T14:12:32;0.50;98.90
21417;DHT22;10869;52.238;10.716;2022-12-18T14:15:35;0.30;99.90
21417;DHT22;10869;52.238;10.716;2022-12-18T14:18:24;0.00;99.90
21417;DHT22;10869;52.238;10.716;2022-12-18T14:20:59;-0.20;99.90
21417;DHT22;10869;52.238;10.716;2022-12-18T14:23:42;-0.30;99.90
21417;DHT22;10869;52.238;10.716;2022-12-18T14:34:33;-0.40;99.90
21417;DHT22;10869;52.238;10.716;2022-12-18T14:36:59;-0.30;99.90
21417;DHT22;10869;52.238;10.716;2022-12-18T14:39:25;-0.30;99.90
21417;DHT22;10869;52.238;10.716;2022-12-18T14:41:52;-0.20;99.90
21417;DHT22;10869;52.238;10.716;2022-12-18T14:44:18;0.00;99.00
21417;DHT22;10869;52.238;10.716;2022-12-18T14:46:45;0.00;99.60
21417;DHT22;10869;52.238;10.716;2022-12-18T14:51:56;-0.20;99.90
21417;DHT22;10869;52.238;10.716;2022-12-18T14:54:35;-0.40;99.90
21417;DHT22;10869;52.238;10.716;2022-12-18T14:59:47;-1.00;99.90
21417;DHT22;10869;52.238;10.716;2022-12-18T15:02:26;-1.10;99.90
21417;DHT22;10869;52.238;10.716;2022-12-18T15:08:35;-1.40;99.90
21417;DHT22;10869;52.238;10.716;2022-12-18T15:16:57;-2.00;99.90
21417;DHT22;10869;52.238;10.716;2022-12-18T15:19:41;-2.10;99.90
21417;DHT22;10869;52.238;10.716;2022-12-18T15:25:37;-2.30;99.90
21417;DHT22;10869;52.238;10.716;2022-12-18T15:28:04;-2.40;99.90
21417;DHT22;10869;52.238;10.716;2022-12-18T15:33:35;-2.40;99.90
21417;DHT22;10869;52.238;10.716;2022-12-18T15:36:03;-2.30;99.90
21417;DHT22;10869;52.238;10.716;2022-12-18T15:41:52;-1.60;99.90
21417;DHT22;10869;52.238;10.716;2022-12-18T15:47:58;-0.90;99.90
21417;DHT22;10869;52.238;10.716;2022-12-18T15:50:24;-0.80;99.90
21417;DHT22;10869;52.238;10.716;2022-12-18T15:56:14;-0.60;99.90
21417;DHT22;10869;52.238;10.716;2022-12-18T15:58:59;-0.40;98.70
21417;DHT22;10869;52.238;10.716;2022-12-18T16:01:27;-0.30;98.30
21417;DHT22;10869;52.238;10.716;2022-12-18T16:07:15;0.00;98.10
21417;DHT22;10869;52.238;10.716;2022-12-18T16:09:41;0.00;97.90
21417;DHT22;10869;52.238;10.716;2022-12-18T16:15:29;0.10;97.30
21417;DHT22;10869;52.238;10.716;2022-12-18T16:21:16;0.10;96.90
21417;DHT22;10869;52.238;10.716;2022-12-18T16:27:04;0.10;96.40
21417;DHT22;10869;52.238;10.716;2022-12-18T16:36:14;0.10;96.00
21417;DHT22;10869;52.238;10.716;2022-12-18T16:42:10;0.30;95.70
21417;DHT22;10869;52.238;10.716;2022-12-18T16:44:38;0.30;95.50
21417;DHT22;10869;52.238;10.716;2022-12-18T16:47:04;0.30;95.50
21417;DHT22;10869;52.238;10.716;2022-12-18T16:49:30;0.30;95.80
21417;DHT22;10869;52.238;10.716;2022-12-18T16:55:19;0.30;95.10
21417;DHT22;10869;52.238;10.716;2022-12-18T16:57:45;0.40;95.00
21417;DHT22;10869;52.238;10.716;2022-12-18T17:00:11;0.40;95.00
21417;DHT22;10869;52.238;10.716;2022-12-18T17:02:38;0.40;95.00
21417;DHT22;10869;52.238;10.716;2022-12-18T17:08:25;0.40;95.50
21417;DHT22;10869;52.238;10.716;2022-12-18T17:10:51;0.30;95.90
21417;DHT22;10869;52.238;10.716;2022-12-18T17:13:17;0.30;96.20
21417;DHT22;10869;52.238;10.716;2022-12-18T17:15:43;0.20;96.90
21417;DHT22;10869;52.238;10.716;2022-12-18T17:18:08;0.10;97.10
21417;DHT22;10869;52.238;10.716;2022-12-18T17:20:34;-0.10;98.60
21417;DHT22;10869;52.238;10.716;2022-12-18T17:23:00;-0.30;99.50
21417;DHT22;10869;52.238;10.716;2022-12-18T17:25:26;-0.60;99.90
21417;DHT22;10869;52.238;10.716;2022-12-18T17:27:52;-0.70;99.90
21417;DHT22;10869;52.238;10.716;2022-12-18T17:30:17;-0.80;99.90
21417;DHT22;10869;52.238;10.716;2022-12-18T17:32:43;-0.80;99.90
21417;DHT22;10869;52.238;10.716;2022-12-18T17:38:31;-0.80;99.90
21417;DHT22;10869;52.238;10.716;2022-12-18T17:41:05;-0.90;99.90
21417;DHT22;10869;52.238;10.716;2022-12-18T17:43:31;-1.00;99.90
21417;DHT22;10869;52.238;10.716;2022-12-18T17:46:04;-0.80;99.80
21417;DHT22;10869;52.238;10.716;2022-12-18T17:48:31;-0.70;98.60
21417;DHT22;10869;52.238;10.716;2022-12-18T17:51:05;-0.50;98.30
21417;DHT22;10869;52.238;10.716;2022-12-18T17:53:34;-0.30;97.90
21417;DHT22;10869;52.238;10.716;2022-12-18T17:56:00;-0.30;98.00
21417;DHT22;10869;52.238;10.716;2022-12-18T17:58:31;-0.20;98.10
21417;DHT22;10869;52.238;10.716;2022-12-18T18:04:19;-0.10;98.20
21417;DHT22;10869;52.238;10.716;2022-12-18T18:06:44;0.00;97.10
21417;DHT22;10869;52.238;10.716;2022-12-18T18:09:10;0.00;97.50
21417;DHT22;10869;52.238;10.716;2022-12-18T18:11:36;0.10;97.00
21417;DHT22;10869;52.238;10.716;2022-12-18T18:14:20;0.10;96.80
21417;DHT22;10869;52.238;10.716;2022-12-18T18:20:08;0.40;96.20
21417;DHT22;10869;52.238;10.716;2022-12-18T18:22:34;0.40;95.50
21417;DHT22;10869;52.238;10.716;2022-12-18T18:25:00;0.50;95.80
21417;DHT22;10869;52.238;10.716;2022-12-18T18:27:28;0.40;95.90
21417;DHT22;10869;52.238;10.716;2022-12-18T18:29:55;0.50;96.10
21417;DHT22;10869;52.238;10.716;2022-12-18T18:32:21;0.50;95.70
21417;DHT22;10869;52.238;10.716;2022-12-18T18:34:47;0.50;95.80
21417;DHT22;10869;52.238;10.716;2022-12-18T18:37:13;0.50;95.80
21417;DHT22;10869;52.238;10.716;2022-12-18T18:39:39;0.50;95.30
21417;DHT22;10869;52.238;10.716;2022-12-18T18:42:04;0.60;95.70
21417;DHT22;10869;52.238;10.716;2022-12-18T18:44:31;0.60;95.50
21417;DHT22;10869;52.238;10.716;2022-12-18T18:46:57;0.60;96.00
21417;DHT22;10869;52.238;10.716;2022-12-18T18:49:24;0.60;95.80
21417;DHT22;10869;52.238;10.716;2022-12-18T18:51:52;0.60;96.00
21417;DHT22;10869;52.238;10.716;2022-12-18T18:57:40;0.50;95.50
21417;DHT22;10869;52.238;10.716;2022-12-18T19:00:07;0.60;95.70
21417;DHT22;10869;52.238;10.716;2022-12-18T19:02:34;0.60;95.90
21417;DHT22;10869;52.238;10.716;2022-12-18T19:05:00;0.60;95.80
21417;DHT22;10869;52.238;10.716;2022-12-18T19:07:26;0.60;95.90
21417;DHT22;10869;52.238;10.716;2022-12-18T19:09:52;0.60;95.90
21417;DHT22;10869;52.238;10.716;2022-12-18T19:12:19;0.60;95.90
21417;DHT22;10869;52.238;10.716;2022-12-18T19:18:25;0.70;95.80
21417;DHT22;10869;52.238;10.716;2022-12-18T19:20:59;0.60;96.10
21417;DHT22;10869;52.238;10.716;2022-12-18T19:23:26;0.60;96.10
21417;DHT22;10869;52.238;10.716;2022-12-18T19:25:52;0.70;95.90
21417;DHT22;10869;52.238;10.716;2022-12-18T19:28:21;0.60;96.00
21417;DHT22;10869;52.238;10.716;2022-12-18T19:30:59;0.60;96.30
21417;DHT22;10869;52.238;10.716;2022-12-18T19:33:34;0.60;96.40
21417;DHT22;10869;52.238;10.716;2022-12-18T19:36:08;0.60;96.10
21417;DHT22;10869;52.238;10.716;2022-12-18T19:38:34;0.60;96.10
21417;DHT22;10869;52.238;10.716;2022-12-18T19:40:59;0.70;96.00
21417;DHT22;10869;52.238;10.716;2022-12-18T19:43:28;0.60;95.80
21417;DHT22;10869;52.238;10.716;2022-12-18T19:49:16;0.70;96.30
21417;DHT22;10869;52.238;10.716;2022-12-18T19:51:44;0.70;96.10
21417;DHT22;10869;52.238;10.716;2022-12-18T19:57:34;0.70;96.10
21417;DHT22;10869;52.238;10.716;2022-12-18T20:03:22;0.80;96.00
21417;DHT22;10869;52.238;10.716;2022-12-18T20:05:48;0.70;96.10
21417;DHT22;10869;52.238;10.716;2022-12-18T20:08:14;0.70;96.00
21417;DHT22;10869;52.238;10.716;2022-12-18T20:16:37;0.60;96.60
21417;DHT22;10869;52.238;10.716;2022-12-18T20:19:04;0.60;96.70
21417;DHT22;10869;52.238;10.716;2022-12-18T20:21:30;0.60;96.60
21417;DHT22;10869;52.238;10.716;2022-12-18T20:27:17;0.60;96.60
21417;DHT22;10869;52.238;10.716;2022-12-18T20:33:07;0.70;96.50
21417;DHT22;10869;52.238;10.716;2022-12-18T20:35:36;0.70;96.80
21417;DHT22;10869;52.238;10.716;2022-12-18T20:38:02;0.70;96.80
21417;DHT22;10869;52.238;10.716;2022-12-18T20:43:50;0.70;96.40
21417;DHT22;10869;52.238;10.716;2022-12-18T20:46:44;0.70;96.50
21417;DHT22;10869;52.238;10.716;2022-12-18T20:49:14;0.70;96.50
21417;DHT22;10869;52.238;10.716;2022-12-18T20:55:05;0.70;96.80
21417;DHT22;10869;52.238;10.716;2022-12-18T21:01:10;0.70;96.80
21417;DHT22;10869;52.238;10.716;2022-12-18T21:03:36;0.60;96.80
21417;DHT22;10869;52.238;10.716;2022-12-18T21:06:02;0.70;96.70
21417;DHT22;10869;52.238;10.716;2022-12-18T21:08:31;0.70;96.70
21417;DHT22;10869;52.238;10.716;2022-12-18T21:11:22;0.70;96.70
21417;DHT22;10869;52.238;10.716;2022-12-18T21:14:17;0.70;96.30
21417;DHT22;10869;52.238;10.716;2022-12-18T21:16:43;0.70;96.40
21417;DHT22;10869;52.238;10.716;2022-12-18T21:19:15;0.60;96.80
21417;DHT22;10869;52.238;10.716;2022-12-18T21:21:41;0.60;97.10
21417;DHT22;10869;52.238;10.716;2022-12-18T21:24:08;0.60;97.10
21417;DHT22;10869;52.238;10.716;2022-12-18T21:26:37;0.50;97.00
21417;DHT22;10869;52.238;10.716;2022-12-18T21:29:06;0.60;97.00
21417;DHT22;10869;52.238;10.716;2022-12-18T21:31:34;0.70;96.40
21417;DHT22;10869;52.238;10.716;2022-12-18T21:34:01;0.70;96.20
21417;DHT22;10869;52.238;10.716;2022-12-18T21:36:28;0.70;96.20
21417;DHT22;10869;52.238;10.716;2022-12-18T21:38:54;0.70;96.60
21417;DHT22;10869;52.238;10.716;2022-12-18T21:45:05;0.60;97.00
21417;DHT22;10869;52.238;10.716;2022-12-18T21:47:31;0.60;97.10
21417;DHT22;10869;52.238;10.716;2022-12-18T21:53:19;0.60;97.20
21417;DHT22;10869;52.238;10.716;2022-12-18T21:55:45;0.60;97.20
21417;DHT22;10869;52.238;10.716;2022-12-18T21:58:10;0.50;97.20
21417;DHT22;10869;52.238;10.716;2022-12-18T22:00:36;0.50;97.70
21417;DHT22;10869;52.238;10.716;2022-12-18T22:03:02;0.50;97.50
21417;DHT22;10869;52.238;10.716;2022-12-18T22:05:27;0.60;97.10
21417;DHT22;10869;52.238;10.716;2022-12-18T22:07:53;0.60;97.20
21417;DHT22;10869;52.238;10.716;2022-12-18T22:10:19;0.60;96.90
21417;DHT22;10869;52.238;10.716;2022-12-18T22:12:44;0.70;96.90
21417;DHT22;10869;52.238;10.716;2022-12-18T22:15:11;0.60;97.10
21417;DHT22;10869;52.238;10.716;2022-12-18T22:17:37;0.60;97.00
21417;DHT22;10869;52.238;10.716;2022-12-18T22:20:03;0.60;97.00
21417;DHT22;10869;52.238;10.716;2022-12-18T22:22:29;0.60;97.10
21417;DHT22;10869;52.238;10.716;2022-12-18T22:28:17;0.60;97.00
21417;DHT22;10869;52.238;10.716;2022-12-18T22:31:01;0.60;96.90
21417;DHT22;10869;52.238;10.716;2022-12-18T22:33:27;0.60;97.20
21417;DHT22;10869;52.238;10.716;2022-12-18T22:35:52;0.60;97.20
21417;DHT22;10869;52.238;10.716;2022-12-18T22:38:18;0.60;97.50
21417;DHT22;10869;52.238;10.716;2022-12-18T22:40:44;0.60;97.50
21417;DHT22;10869;52.238;10.716;2022-12-18T22:43:10;0.60;97.00
21417;DHT22;10869;52.238;10.716;2022-12-18T22:49:15;0.60;97.20
21417;DHT22;10869;52.238;10.716;2022-12-18T22:51:49;0.70;97.10
21417;DHT22;10869;52.238;10.716;2022-12-18T22:54:15;0.70;97.10
21417;DHT22;10869;52.238;10.716;2022-12-18T22:56:41;0.70;97.00
21417;DHT22;10869;52.238;10.716;2022-12-18T22:59:16;0.80;97.00
21417;DHT22;10869;52.238;10.716;2022-12-18T23:01:43;0.70;97.00
21417;DHT22;10869;52.238;10.716;2022-12-18T23:04:09;0.80;96.90
21417;DHT22;10869;52.238;10.716;2022-12-18T23:06:35;0.80;97.00
21417;DHT22;10869;52.238;10.716;2022-12-18T23:09:01;0.90;96.80
21417;DHT22;10869;52.238;10.716;2022-12-18T23:11:26;1.00;96.70
21417;DHT22;10869;52.238;10.716;2022-12-18T23:13:52;1.00;97.00
21417;DHT22;10869;52.238;10.716;2022-12-18T23:16:19;1.00;97.00
21417;DHT22;10869;52.238;10.716;2022-12-18T23:18:46;1.10;97.10
21417;DHT22;10869;52.238;10.716;2022-12-18T23:21:13;1.10;97.20
21417;DHT22;10869;52.238;10.716;2022-12-18T23:23:39;1.20;97.30
21417;DHT22;10869;52.238;10.716;2022-12-18T23:26:11;1.20;97.40
21417;DHT22;10869;52.238;10.716;2022-12-18T23:28:37;1.20;97.60
21417;DHT22;10869;52.238;10.716;2022-12-18T23:31:04;1.20;97.60
21417;DHT22;10869;52.238;10.716;2022-12-18T23:33:30;1.20;97.70
21417;DHT22;10869;52.238;10.716;2022-12-18T23:35:58;1.30;97.90
21417;DHT22;10869;52.238;10.716;2022-12-18T23:38:28;1.30;98.20
21417;DHT22;10869;52.238;10.716;2022-12-18T23:40:54;1.30;98.40
21417;DHT22;10869;52.238;10.716;2022-12-18T23:43:20;1.40;98.70
21417;DHT22;10869;52.238;10.716;2022-12-18T23:45:45;1.40;98.90
21417;DHT22;10869;52.238;10.716;2022-12-18T23:48:11;1.50;99.20
21417;DHT22;10869;52.238;10.716;2022-12-18T23:50:37;1.60;99.70
21417;DHT22;10869;52.238;10.716;2022-12-18T23:53:03;1.70;99.90
21417;DHT22;10869;52.238;10.716;2022-12-18T23:55:29;1.80;99.90
21417;DHT22;10869;52.238;10.716;2022-12-18T23:57:57;1.90;99.90
